Latest Coastal Weather Observations for Melbourne (Olympic Park)

IDV60701

Issued at 12:41 am EST Sunday 30 August 2015 (issued every 10 minutes, with the page automatically refreshed every 10 minutes)

About coastal observations | Map of coastal stations | Coastal observations for VIC | Marine services | Other Formats
Station Details ID: 086338 Name: MELBOURNE (OLYMPIC PARK) Lat: -37.83 Lon: 144.98 Height: 7.53 m
Data from the previous 72 hours. | See also: Recent months at Melbourne (Olympic Park)
Date/Time
EST
Temp

°C
Wind Pressure Rain
since 9am
mm
Weather Cloud Vis
km
Sea
Height
m
Swell
Dir
 
Speed
knots
Gust
knots
hPa Trend Height
m
Period
s
Dir
30/12:30am 9.4 SSW 5 8 1025.2 - 1.4 - - - - - - -
30/12:00am 9.7 SSW 5 9 1025.5 - 1.2 - - - - - - -
 
Date/Time
EST
Temp

°C
Wind Pressure Rain
since 9am
mm
Weather Cloud Vis
km
Sea
Height
m
Swell
Dir
 
Speed
knots
Gust
knots
hPa Trend Height
m
Period
s
Dir
29/11:30pm 9.6 SSW 5 9 1025.7 - 1.2 - - - - - - -
29/11:00pm 9.6 SSW 6 11 1025.8 - 1.2 - - - - - - -
29/10:30pm 9.7 SSW 5 11 1025.9 - 1.2 - - - - - - -
29/10:00pm 9.6 S 6 11 1026.0 - 1.2 - - - - - - -
29/09:30pm 9.9 SW 5 8 1025.9 - 1.0 - - - - - - -
29/09:00pm 9.6 SSW 9 14 1025.7 - 1.0 - - - - - - -
29/08:30pm 9.7 SSW 5 10 1025.8 - 1.0 - - - - - - -
29/08:00pm 9.4 SW 6 13 1025.9 - 1.0 - - - - - - -
29/07:30pm 9.6 SSW 7 14 1025.8 - 0.8 - - - - - - -
29/07:00pm 10.0 SW 4 7 1025.8 - 0.4 - - - - - - -
29/06:30pm 9.8 SSW 8 15 1025.6 - 0.4 - - - - - - -
29/06:00pm 9.8 SSW 4 7 1025.2 - 0.2 Rain - - - - - -
29/05:30pm 10.0 SSW 8 13 1025.2 - 0.0 - - - - - - -
29/05:00pm 10.5 SW 6 11 1025.1 - 0.0 - - - - - - -
29/04:30pm 10.9 SSW 7 22 1025.1 - 0.0 - - - - - - -
29/04:00pm 10.6 SW 6 12 1025.0 - 0.0 - - - - - - -
29/03:30pm 10.2 SSW 9 17 1025.1 - 0.0 - - - - - - -
29/03:00pm 10.9 SW 7 13 1025.1 - 0.0 - - - - - - -
29/02:30pm 10.3 SSW 10 22 1025.2 - 0.0 - - - - - - -
29/02:00pm 11.2 SSW 9 14 1025.1 - 0.0 - - - - - - -
29/01:30pm 11.1 SW 7 13 1025.4 - 0.0 - - - - - - -
29/01:00pm 11.0 SW 5 13 1025.9 - 0.0 - - - - - - -
29/12:30pm 10.7 WSW 7 17 1026.2 - 0.0 - - - - - - -
29/12:00pm 10.7 WSW 7 11 1026.5 - 0.0 - - - - - - -
29/11:30am 10.1 SW 5 10 1026.8 - 0.0 - - - - - - -
29/11:00am 9.5 WSW 6 11 1026.9 - 0.0 - - - - - - -
29/10:30am 9.5 W 7 11 1026.8 - 0.0 - - - - - - -
29/10:00am 9.1 W 6 9 1026.9 - 0.0 - - - - - - -
29/09:30am 8.4 W 5 8 1027.2 - 0.0 - - - - - - -
29/09:00am 8.5 W 5 9 1027.3 - 1.8 - - - - - - -
29/08:30am 8.1 W 4 9 1027.0 - 1.8 - - - - - - -
29/08:00am 7.7 W 5 10 1027.1 - 1.8 - - - - - - -
29/07:30am 6.6 WNW 6 10 1026.9 - 1.8 - - - - - - -
29/07:00am 6.8 W 5 9 1026.6 - 1.8 - - - - - - -
29/06:30am 8.0 SW 7 14 1026.2 - 1.8 - - - - - - -
29/06:00am 6.3 SE 1 4 1026.0 - 1.8 - - - - - - -
29/05:30am 7.1 SSE 3 7 1026.1 - 1.8 - - - - - - -
29/05:00am 7.4 SSE 5 9 1026.1 - 1.8 - - - - - - -
29/04:30am 7.5 SSE 5 8 1026.0 - 1.8 - - - - - - -
29/04:00am 7.0 SSE 5 7 1026.1 - 1.8 - - - - - - -
29/03:30am 7.0 CALM 0 0 1025.9 - 1.8 - - - - - - -
29/03:00am 7.1 CALM 0 0 1026.0 - 1.8 Recent precip. - - - - - -
29/02:30am 7.6 SSE 3 5 1026.3 - 1.6 - - - - - - -
29/02:00am 7.6 SSW 6 11 1026.5 - 1.6 - - - - - - -
29/01:30am 7.1 W 5 9 1026.5 - 1.4 - - - - - - -
29/01:00am 7.6 W 4 7 1026.6 - 0.0 - - - - - - -
29/12:30am 7.7 W 5 7 1026.5 - 0.0 - - - - - - -
29/12:00am 7.4 W 3 6 1026.4 - 0.0 - - - - - - -
 
Date/Time
EST
Temp

°C
Wind Pressure Rain
since 9am
mm
Weather Cloud Vis
km
Sea
Height
m
Swell
Dir
 
Speed
knots
Gust
knots
hPa Trend Height
m
Period
s
Dir
28/11:30pm 7.7 WNW 3 6 1026.3 - 0.0 - - - - - - -
28/11:00pm 9.2 SSW 5 7 1026.6 - 0.0 - - - - - - -
28/10:30pm 9.2 SW 5 11 1026.8 - 0.0 - - - - - - -
28/10:00pm 9.3 SW 5 10 1026.8 - 0.0 - - - - - - -
28/09:30pm 9.5 SW 6 11 1026.8 - 0.0 - - - - - - -
28/09:00pm 9.8 SSW 6 12 1026.6 - 0.0 - - - - - - -
28/08:30pm 9.9 SSW 6 10 1026.4 - 0.0 - - - - - - -
28/08:00pm 9.8 SSW 6 12 1026.2 - 0.0 - - - - - - -
28/07:30pm 10.0 SSW 4 7 1026.1 - 0.0 - - - - - - -
28/07:00pm 10.1 SW 6 11 1026.0 - 0.0 - - - - - - -
28/06:30pm 10.0 SSW 5 8 1025.8 - 0.0 - - - - - - -
28/06:00pm 10.3 SSW 5 10 1025.5 - 0.0 - - - - - - -
28/05:30pm 10.5 SSW 7 13 1025.4 - 0.0 - - - - - - -
28/05:00pm 10.5 SSW 9 16 1025.2 - 0.0 - - - - - - -
28/04:30pm 10.7 SSW 9 16 1025.1 - 0.0 - - - - - - -
28/04:00pm 11.4 SSW 10 19 1024.9 - 0.0 - - - - - - -
28/03:30pm 11.5 SSW 12 20 1024.9 - 0.0 - - - - - - -
28/03:00pm 11.9 SSW 9 18 1024.9 - 0.0 - - - - - - -
28/02:30pm 12.4 SSW 10 16 1024.8 - 0.0 - - - - - - -
28/02:00pm 12.3 SSW 9 14 1024.8 - 0.0 - - - - - - -
28/01:30pm 12.1 SSW 6 11 1024.9 - 0.0 - - - - - - -
28/01:00pm 13.0 S 6 9 1025.1 - 0.0 - - - - - - -
28/12:30pm 11.9 SSW 8 15 1025.6 - 0.0 - - - - - - -
28/12:00pm 12.3 SW 7 13 1025.8 - 0.0 - - - - - - -
28/11:30am 12.1 SSW 6 10 1026.2 - 0.0 - - - - - - -
28/11:00am 11.5 SW 6 9 1026.3 - 0.0 - - - - - - -
28/10:30am 10.9 WSW 4 6 1026.3 - 0.0 - - - - - - -
28/10:00am 10.5 SW 6 10 1026.2 - 0.0 - - - - - - -
28/09:30am 10.2 SSW 4 8 1026.0 - 0.0 - - - - - - -
28/09:00am 9.4 WSW 4 6 1026.0 - 17.4 Recent precip. - - - - - -
28/08:30am 9.0 W 5 9 1025.9 - 17.4 - - - - - - -
28/08:00am 9.1 W 4 9 1025.6 - 17.2 - - - - - - -
28/07:30am 8.9 WSW 4 9 1025.3 - 17.2 - - - - - - -
28/07:00am 8.6 W 5 10 1025.1 - 17.2 - - - - - - -
28/06:30am 8.5 WSW 4 7 1024.8 - 17.2 - - - - - - -
28/06:00am 8.3 WSW 5 7 1024.5 - 17.2 - - - - - - -
28/05:30am 8.5 WNW 4 7 1024.3 - 17.2 - - - - - - -
28/05:00am 8.9 W 5 7 1024.1 - 17.2 - - - - - - -
28/04:30am 9.3 W 5 7 1024.0 - 17.2 - - - - - - -
28/04:00am 9.8 SW 3 6 1023.9 - 17.2 - - - - - - -
28/03:30am 10.3 SSW 5 8 1023.9 - 17.2 - - - - - - -
28/03:00am 10.4 SSW 6 9 1023.9 - 17.2 - - - - - - -
28/02:30am 10.4 SSW 6 11 1024.1 - 17.2 - - - - - - -
28/02:00am 10.4 SSW 5 8 1024.1 - 17.2 - - - - - - -
28/01:30am 10.3 SSW 5 9 1024.1 - 17.2 - - - - - - -
28/01:00am 10.4 SSW 6 11 1023.9 - 17.2 - - - - - - -
28/12:30am 10.5 SSW 6 10 1023.8 - 17.2 - - - - - - -
28/12:00am 10.6 SSW 5 9 1023.7 - 17.2 - - - - - - -
 
Date/Time
EST
Temp

°C
Wind Pressure Rain
since 9am
mm
Weather Cloud Vis
km
Sea
Height
m
Swell
Dir
 
Speed
knots
Gust
knots
hPa Trend Height
m
Period
s
Dir
27/11:30pm 10.8 SSW 6 11 1023.7 - 17.2 - - - - - - -
27/11:00pm 11.0 S 6 12 1023.5 - 17.2 - - - - - - -
27/10:30pm 11.0 S 6 13 1023.2 - 17.2 - - - - - - -
27/10:00pm 10.9 S 6 11 1023.1 - 17.2 - - - - - - -
27/09:30pm 11.0 SSW 6 11 1022.9 - 17.2 - - - - - - -
27/09:00pm 11.1 S 8 14 1022.7 - 17.2 Recent precip. - - - - - -
27/08:30pm 11.2 S 6 11 1022.4 - 17.0 - - - - - - -
27/08:00pm 11.3 SSW 7 14 1022.2 - 16.8 - - - - - - -
27/07:30pm 11.2 SSW 5 9 1021.8 - 16.6 - - - - - - -
27/07:00pm 11.2 S 5 8 1021.5 - 16.6 - - - - - - -
27/06:30pm 11.6 SSE 5 9 1021.2 - 16.2 - - - - - - -
27/06:00pm 11.5 SSW 7 15 1020.8 - 15.2 Rain - - - - - -
27/05:30pm 11.6 SSW 9 15 1020.4 - 14.4 - - - - - - -
27/05:00pm 11.6 SSW 7 16 1020.2 - 13.8 - - - - - - -
27/04:30pm 11.6 SW 6 10 1020.0 - 13.8 - - - - - - -
27/04:00pm 11.5 SW 4 9 1019.7 - 13.4 - - - - - - -
27/03:30pm 11.5 SW 6 10 1019.8 - 13.0 - - - - - - -
27/03:00pm 11.4 SW 5 9 1019.8 - 12.6 Rain - - - - - -
27/02:30pm 11.2 WSW 3 6 1019.9 - 12.2 - - - - - - -
27/02:00pm 11.0 SW 2 5 1020.0 - 11.4 - - - - - - -
27/01:30pm 10.8 SSW 2 5 1020.4 - 9.6 - - - - - - -
27/01:00pm 10.7 SW 3 6 1020.6 - 8.2 - - - - - - -
27/12:30pm 10.8 SW 3 5 1021.0 - 5.0 - - - - - - -
27/12:00pm 10.7 WSW 1 4 1021.1 - 3.4 Rain - - - - - -
27/11:30am 10.7 SW 1 4 1021.4 - 2.2 - - - - - - -
27/11:00am 10.6 CALM 0 0 1021.4 - 1.4 - - - - - - -
27/10:30am 10.4 W 2 6 1021.5 - 0.8 - - - - - - -
27/10:00am 10.1 WSW 1 5 1021.5 - 0.6 - - - - - - -
27/09:30am 10.3 WSW 1 4 1021.8 - 0.4 - - - - - - -
27/09:00am 10.2 WSW 2 6 1022.0 - 0.8 - - - - - - -
27/08:30am 10.1 SSW 3 5 1021.8 - 0.8 - - - - - - -
27/08:00am 10.0 CALM 0 3 1021.6 - 0.8 - - - - - - -
27/07:30am 10.0 CALM 0 0 1021.3 - 0.6 - - - - - - -
27/07:00am 10.2 W 4 6 1021.3 - 0.4 - - - - - - -
27/06:30am 10.7 SW 1 5 1021.0 - 0.0 - - - - - - -
27/06:00am 10.6 CALM 0 0 1020.5 - 0.0 - - - - - - -
27/05:30am 10.6 CALM 0 0 1020.5 - 0.0 - - - - - - -
27/05:00am 10.5 CALM 0 0 1020.4 - 0.0 - - - - - - -
27/04:30am 10.6 CALM 0 0 1020.4 - 0.0 - - - - - - -
27/04:00am 10.5 CALM 0 0 1020.6 - 0.0 - - - - - - -
27/03:30am 10.7 CALM 0 0 1020.7 - 0.0 - - - - - - -
27/03:00am 10.7 CALM 0 0 1021.0 - 0.0 - - - - - - -
27/02:30am 10.7 CALM 0 4 1021.1 - 0.0 - - - - - - -
27/02:00am 10.5 CALM 0 0 1021.5 - 0.0 - - - - - - -
27/01:30am 10.7 S 1 3 1021.8 - 0.0 - - - - - - -
27/01:00am 10.9 CALM 0 0 1022.0 - 0.0 - - - - - - -

Other Formats:

Comma delimited format used in spreadsheet applications
http://www.bom.gov.au/fwo/IDV60701/IDV60701.95936.axf

JavaScript Object Notation format (JSON) in row-major order
http://www.bom.gov.au/fwo/IDV60701/IDV60701.95936.json